Bavaria

Go HERE for most recent data if this page is not up to date.

Jump to table bottom
Date Time Temp F RH % AVG Wind Max Wind Wind Dir 24 Snow Depth
*04/21/18 11 37.0 38 10 16 NW - 293 0.4 109.4
*04/21/18 10 35.5 38 10 18 W - 258 0.5 109.6
*04/21/18 09 35.1 37 8 13 W - 268 0.5 109.6
*04/21/18 08 34.0 37 8 13 NW - 293 0.6 109.8
*04/21/18 07 31.6 42 10 16 W - 284 0.6 109.8
*04/21/18 06 31.6 44 9 12 NW - 293 0.7 109.9
*04/21/18 05 30.9 44 9 12 W - 292 0.7 110.0
*04/21/18 04 31.4 44 8 11 NW - 308 0.7 109.9
*04/21/18 03 32.1 37 7 11 NW - 295 0.7 110.1
*04/21/18 02 32.5 33 5 8 NW - 306 0.7 110.1
*04/21/18 01 30.9 35 2 4 NW - 295 0.7 110.1
*04/21/18 00 30.2 58 2 5 N - 345 0.6 110.1
*04/20/18 23 31.2 45 3 7 N - 349 0.6 110.2
*04/20/18 22 33.6 43 6 10 N - 340 0.7 110.4
*04/20/18 21 32.6 39 5 10 N - 348 0.6 110.3
*04/20/18 20 33.8 54 4 10 N - 350 0.5 110.2
*04/20/18 19 38.1 42 3 8 NE - 45 0.4 110.2
*04/20/18 18 42.0 36 3 9 SE - 113 0.3 110.2
*04/20/18 17 41.2 40 4 9 SW - 235 0.2 110.4
*04/20/18 16 42.4 38 3 9 N - 12 0.1 111.4
*04/20/18 15 38.4 43 3 7 NE - 50 0.2 111.8
*04/20/18 14 41.3 39 4 7 N - 349 -0.0 111.4
*04/20/18 13 36.8 47 3 7 NE - 51 0.0 112.1
*04/20/18 12 37.4 49 3 12 NE - 24 0.1 112.6
*04/20/18 11 38.6 38 4 8 SE - 129 0.4 112.1
*04/20/18 10 36.9 42 4 10 SE - 124 0.3 112.2
*04/20/18 09 33.4 43 4 14 NE - 42 0.5 112.5
*04/20/18 08 30.1 55 6 13 NE - 43 0.5 112.4
*04/20/18 07 25.9 63 7 12 E - 78 0.7 112.4
*04/20/18 06 26.7 54 7 12 N - 5 0.6 112.5
*04/20/18 05 26.9 55 10 14 NE - 44 0.6 112.5
*04/20/18 04 24.9 63 9 14 N - 15 0.6 112.5
*04/20/18 03 26.3 61 9 13 E - 72 0.7 112.6
*04/20/18 02 27.4 57 10 16 N - 351 0.7 112.6
*04/20/18 01 26.5 63 9 13 NE - 47 0.6 112.6
*04/20/18 00 27.5 62 6 11 NE - 39 0.6 112.8
.